AAL408 KLAX-PANC
Flight info
| Callsign | AAL408 |
|---|---|
| Flight time | N/A |
| Altitude | 30000 |
| Route | SUMMR2 SCTRR PYE J143 ENI FOT KYLLE B453 MDO YESKA6 |
| Aircraft | A321/M-VGDW/C |
Departure
| Time | 2026-05-07 07:47 |
|---|---|
| Airport | Los Angeles International Airport (KLAX) |
Arrival
| Time | N/A |
|---|---|
| Airport | Ted Stevens Anchorage International Airport (PANC) |
| Time | Latitude | Longitude | Altitude | Speed | Heading |
|---|---|---|---|---|---|
| 2026-05-07 07:22 | 33.94038 | -118.40614 | 125 ft | 0 kts | 266° |
| 2026-05-07 07:36 | 33.94039 | -118.40611 | 125 ft | 1 kts | 266° |
| 2026-05-07 07:36 | 33.94039 | -118.40600 | 125 ft | 1 kts | 268° |
| 2026-05-07 07:36 | 33.94043 | -118.40582 | 125 ft | 2 kts | 236° |
| 2026-05-07 07:36 | 33.94054 | -118.40569 | 124 ft | 2 kts | 211° |
| 2026-05-07 07:37 | 33.94067 | -118.40563 | 124 ft | 2 kts | 185° |
| 2026-05-07 07:37 | 33.94075 | -118.40563 | 124 ft | 1 kts | 170° |
| 2026-05-07 07:37 | 33.94081 | -118.40564 | 124 ft | 0 kts | 173° |
| 2026-05-07 07:40 | 33.94075 | -118.40563 | 124 ft | 4 kts | 174° |
| 2026-05-07 07:40 | 33.94025 | -118.40556 | 124 ft | 7 kts | 173° |
| 2026-05-07 07:40 | 33.93971 | -118.40549 | 125 ft | 8 kts | 173° |
| 2026-05-07 07:40 | 33.93905 | -118.40539 | 125 ft | 11 kts | 173° |
| 2026-05-07 07:41 | 33.93840 | -118.40524 | 124 ft | 6 kts | 137° |
| 2026-05-07 07:41 | 33.93837 | -118.40421 | 123 ft | 20 kts | 84° |
| 2026-05-07 07:41 | 33.93855 | -118.40238 | 121 ft | 21 kts | 83° |
| 2026-05-07 07:41 | 33.93873 | -118.40067 | 119 ft | 22 kts | 83° |
| 2026-05-07 07:42 | 33.93893 | -118.39869 | 116 ft | 24 kts | 83° |
| 2026-05-07 07:42 | 33.93914 | -118.39661 | 113 ft | 25 kts | 83° |
| 2026-05-07 07:42 | 33.93935 | -118.39455 | 111 ft | 24 kts | 83° |
| 2026-05-07 07:42 | 33.93956 | -118.39253 | 109 ft | 24 kts | 83° |
| 2026-05-07 07:43 | 33.93977 | -118.39049 | 107 ft | 24 kts | 82° |
| 2026-05-07 07:43 | 33.93997 | -118.38852 | 106 ft | 23 kts | 83° |
| 2026-05-07 07:43 | 33.94017 | -118.38657 | 105 ft | 23 kts | 83° |
| 2026-05-07 07:43 | 33.94036 | -118.38468 | 104 ft | 22 kts | 83° |
| 2026-05-07 07:44 | 33.94055 | -118.38284 | 104 ft | 21 kts | 83° |
| 2026-05-07 07:44 | 33.94073 | -118.38109 | 103 ft | 20 kts | 83° |
| 2026-05-07 07:44 | 33.94075 | -118.38032 | 103 ft | 0 kts | 109° |
| 2026-05-07 07:45 | 33.94074 | -118.38029 | 103 ft | 3 kts | 115° |
| 2026-05-07 07:45 | 33.94044 | -118.38007 | 103 ft | 5 kts | 166° |
| 2026-05-07 07:45 | 33.94003 | -118.38006 | 103 ft | 6 kts | 202° |
| 2026-05-07 07:46 | 33.93981 | -118.38061 | 103 ft | 8 kts | 262° |
| 2026-05-07 07:46 | 33.93979 | -118.38078 | 103 ft | 0 kts | 263° |
| 2026-05-07 07:46 | 33.93979 | -118.38080 | 103 ft | 5 kts | 263° |
| 2026-05-07 07:46 | 33.93940 | -118.38457 | 105 ft | 83 kts | 263° |
| 2026-05-07 07:47 | 33.93840 | -118.39439 | 111 ft | 148 kts | 263° |
| 2026-05-07 07:47 | 33.93694 | -118.40827 | 325 ft | 178 kts | 262° |
| 2026-05-07 07:47 | 33.93536 | -118.42307 | 809 ft | 191 kts | 262° |
| 2026-05-07 07:47 | 33.93345 | -118.43920 | 1431 ft | 199 kts | 262° |
| 2026-05-07 07:48 | 33.93138 | -118.45573 | 2124 ft | 204 kts | 263° |
| 2026-05-07 07:48 | 33.92972 | -118.47224 | 2940 ft | 202 kts | 266° |
| 2026-05-07 07:48 | 33.92864 | -118.48931 | 3553 ft | 211 kts | 267° |
| 2026-05-07 07:48 | 33.92754 | -118.50686 | 4212 ft | 209 kts | 266° |
| 2026-05-07 07:49 | 33.92628 | -118.52472 | 4544 ft | 218 kts | 265° |
| 2026-05-07 07:49 | 33.92487 | -118.54318 | 4814 ft | 229 kts | 265° |
| 2026-05-07 07:49 | 33.92327 | -118.56303 | 5016 ft | 245 kts | 265° |
| 2026-05-07 07:49 | 33.92156 | -118.58400 | 5294 ft | 259 kts | 265° |
| 2026-05-07 07:50 | 33.91975 | -118.60597 | 5717 ft | 266 kts | 265° |
| 2026-05-07 07:50 | 33.91811 | -118.62796 | 6280 ft | 268 kts | 267° |
| 2026-05-07 07:50 | 33.91769 | -118.65053 | 6823 ft | 270 kts | 269° |
| 2026-05-07 07:50 | 33.91763 | -118.67323 | 7333 ft | 272 kts | 269° |
| 2026-05-07 07:51 | 33.91759 | -118.69588 | 7830 ft | 275 kts | 269° |
| 2026-05-07 07:51 | 33.91753 | -118.71887 | 8333 ft | 277 kts | 269° |
| 2026-05-07 07:51 | 33.91745 | -118.74227 | 8820 ft | 280 kts | 269° |
| 2026-05-07 07:51 | 33.91737 | -118.76581 | 9311 ft | 282 kts | 269° |
| 2026-05-07 07:52 | 33.91727 | -118.78925 | 9781 ft | 285 kts | 269° |
| 2026-05-07 07:52 | 33.91714 | -118.81305 | 10274 ft | 287 kts | 270° |
| 2026-05-07 07:52 | 33.91715 | -118.83725 | 10688 ft | 292 kts | 272° |
| 2026-05-07 07:52 | 33.91781 | -118.86221 | 10945 ft | 303 kts | 273° |
| 2026-05-07 07:53 | 33.91863 | -118.88776 | 11224 ft | 315 kts | 273° |
| 2026-05-07 07:53 | 33.91948 | -118.91451 | 11438 ft | 326 kts | 273° |
| 2026-05-07 07:53 | 33.92034 | -118.94241 | 11659 ft | 337 kts | 273° |
| 2026-05-07 07:53 | 33.92119 | -118.97101 | 11918 ft | 346 kts | 273° |
| 2026-05-07 07:54 | 33.92275 | -118.99968 | 12333 ft | 347 kts | 280° |
| 2026-05-07 07:54 | 33.92915 | -119.02739 | 12823 ft | 345 kts | 294° |
| 2026-05-07 07:54 | 33.94034 | -119.05283 | 13327 ft | 343 kts | 302° |
| 2026-05-07 07:54 | 33.95296 | -119.07697 | 13806 ft | 344 kts | 303° |
| 2026-05-07 07:55 | 33.96585 | -119.10131 | 14230 ft | 346 kts | 303° |
| 2026-05-07 07:55 | 33.97886 | -119.12611 | 14630 ft | 349 kts | 303° |
| 2026-05-07 07:55 | 33.99094 | -119.14935 | 15013 ft | 350 kts | 303° |
| 2026-05-07 07:55 | 34.00476 | -119.17368 | 15400 ft | 352 kts | 310° |
| 2026-05-07 07:56 | 34.02161 | -119.19521 | 15798 ft | 353 kts | 319° |
| 2026-05-07 07:56 | 34.04103 | -119.21365 | 16188 ft | 354 kts | 324° |
| 2026-05-07 07:56 | 34.06109 | -119.23091 | 16607 ft | 355 kts | 325° |
| 2026-05-07 07:56 | 34.08106 | -119.24787 | 17002 ft | 356 kts | 325° |
| 2026-05-07 07:57 | 34.10161 | -119.26533 | 17322 ft | 359 kts | 325° |
| 2026-05-07 07:57 | 34.12209 | -119.28280 | 17670 ft | 362 kts | 324° |
| 2026-05-07 07:57 | 34.14249 | -119.30027 | 18036 ft | 363 kts | 324° |
| 2026-05-07 07:57 | 34.16331 | -119.31813 | 18388 ft | 365 kts | 324° |
| 2026-05-07 07:58 | 34.18403 | -119.33595 | 18744 ft | 367 kts | 324° |
| 2026-05-07 07:58 | 34.20496 | -119.35397 | 19095 ft | 368 kts | 324° |
| 2026-05-07 07:58 | 34.22572 | -119.37189 | 19427 ft | 370 kts | 324° |
| 2026-05-07 07:58 | 34.24669 | -119.38998 | 19769 ft | 372 kts | 323° |
| 2026-05-07 07:59 | 34.26776 | -119.40820 | 20105 ft | 373 kts | 323° |
| 2026-05-07 07:59 | 34.28904 | -119.42660 | 20442 ft | 375 kts | 323° |
| 2026-05-07 07:59 | 34.31041 | -119.44511 | 20747 ft | 376 kts | 323° |
| 2026-05-07 07:59 | 34.33160 | -119.46347 | 21073 ft | 378 kts | 323° |
| 2026-05-07 08:00 | 34.35308 | -119.48208 | 21385 ft | 379 kts | 323° |
| 2026-05-07 08:00 | 34.37464 | -119.50078 | 21725 ft | 380 kts | 323° |
| 2026-05-07 08:00 | 34.39588 | -119.51918 | 22041 ft | 380 kts | 323° |
| 2026-05-07 08:00 | 34.41728 | -119.53816 | 22356 ft | 381 kts | 321° |
| 2026-05-07 08:01 | 34.43856 | -119.55798 | 22645 ft | 383 kts | 321° |
| 2026-05-07 08:01 | 34.45953 | -119.57769 | 22923 ft | 384 kts | 320° |
| 2026-05-07 08:01 | 34.47995 | -119.59693 | 23211 ft | 386 kts | 320° |
| 2026-05-07 08:01 | 34.50118 | -119.61695 | 23506 ft | 387 kts | 320° |
| 2026-05-07 08:02 | 34.52245 | -119.63702 | 23777 ft | 388 kts | 320° |
| 2026-05-07 08:02 | 34.54380 | -119.65717 | 24040 ft | 390 kts | 320° |
| 2026-05-07 08:02 | 34.56533 | -119.67751 | 24361 ft | 393 kts | 320° |
| 2026-05-07 08:02 | 34.58716 | -119.69814 | 24709 ft | 394 kts | 320° |
| 2026-05-07 08:03 | 34.60870 | -119.71852 | 25035 ft | 395 kts | 320° |
| 2026-05-07 08:03 | 34.63042 | -119.73907 | 25361 ft | 396 kts | 320° |
| 2026-05-07 08:03 | 34.65210 | -119.75959 | 25672 ft | 398 kts | 320° |
| 2026-05-07 08:03 | 34.67395 | -119.78030 | 25968 ft | 399 kts | 320° |
| 2026-05-07 08:04 | 34.69588 | -119.80109 | 26254 ft | 400 kts | 319° |
| 2026-05-07 08:04 | 34.71794 | -119.82202 | 26525 ft | 402 kts | 319° |
| 2026-05-07 08:04 | 34.74000 | -119.84296 | 26772 ft | 404 kts | 319° |
| 2026-05-07 08:04 | 34.76221 | -119.86408 | 27037 ft | 405 kts | 319° |
| 2026-05-07 08:05 | 34.78450 | -119.88527 | 27286 ft | 407 kts | 319° |
| 2026-05-07 08:05 | 34.80657 | -119.90627 | 27553 ft | 407 kts | 319° |
| 2026-05-07 08:05 | 34.82915 | -119.92776 | 27802 ft | 408 kts | 319° |
| 2026-05-07 08:05 | 34.85144 | -119.94900 | 28036 ft | 410 kts | 319° |
| 2026-05-07 08:06 | 34.87397 | -119.97049 | 28258 ft | 411 kts | 319° |
| 2026-05-07 08:06 | 34.89644 | -119.99194 | 28465 ft | 412 kts | 319° |
| 2026-05-07 08:06 | 34.91906 | -120.01355 | 28654 ft | 414 kts | 319° |
| 2026-05-07 08:06 | 34.94197 | -120.03545 | 28841 ft | 416 kts | 319° |
| 2026-05-07 08:07 | 34.96485 | -120.05733 | 29042 ft | 417 kts | 319° |
| 2026-05-07 08:07 | 34.98809 | -120.07958 | 29254 ft | 418 kts | 319° |
| 2026-05-07 08:07 | 35.01085 | -120.10136 | 29454 ft | 419 kts | 319° |
| 2026-05-07 08:07 | 35.03372 | -120.12329 | 29646 ft | 420 kts | 319° |
| 2026-05-07 08:08 | 35.05693 | -120.14558 | 29828 ft | 421 kts | 319° |
| 2026-05-07 08:08 | 35.07975 | -120.16749 | 29993 ft | 422 kts | 319° |
| 2026-05-07 08:08 | 35.10276 | -120.18964 | 30030 ft | 426 kts | 319° |
| 2026-05-07 08:09 | 35.14993 | -120.23505 | 30026 ft | 433 kts | 319° |
| 2026-05-07 08:09 | 35.19797 | -120.28046 | 30027 ft | 434 kts | 320° |
| 2026-05-07 08:10 | 35.24627 | -120.32430 | 30017 ft | 434 kts | 321° |